Lusaka, Zambia
Current Conditions -  °F | °C
As of 4:00 PM on Tuesday 27 Jan 2015 (Local Time) from FLKK Reporting Station
Rain Showers Rain Showers  
Wind Chill: 28°   Ceiling: 3500
Heat Index: 29°   Visibility: 6mi
Dew Point: 18°   Wind: 13mph
Humidity: 54%   Direction: 130°SE
Pressure: 29.97"   Gusts: NA
Location:  15.42°S, 28.29°E
Report Text: FLKK 271400Z 13011KT 9999 VCSH FEW035CB BKN035TCU 28/18 Q1015
Loading
Personal Weather Stations






























Interactive Weather Map New forecast layout! Learn more

10-Day Weather Forecast

Advertisements
Track Severe Weather on mobile